createdAt,value
2023-05-13T00:00:03.175Z,93.91
2023-05-13T00:00:35.594Z,94.21
2023-05-13T00:01:08.066Z,94.17
2023-05-13T00:01:40.517Z,94.11
2023-05-13T00:02:12.997Z,93.91
2023-05-13T00:02:45.479Z,93.96
2023-05-13T00:03:17.892Z,93.60
2023-05-13T00:03:50.474Z,93.50
2023-05-13T00:04:22.767Z,93.50
2023-05-13T00:04:55.191Z,93.60
2023-05-13T00:05:27.623Z,93.60
2023-05-13T00:06:00.065Z,93.70
2023-05-13T00:06:32.525Z,94.01
2023-05-13T00:07:04.913Z,94.21
2023-05-13T00:07:37.337Z,94.11
2023-05-13T00:08:09.769Z,94.11
2023-05-13T00:08:42.193Z,94.11
2023-05-13T00:09:14.624Z,93.91
2023-05-13T00:09:47.079Z,93.80
2023-05-13T00:10:19.596Z,93.91
2023-05-13T00:10:51.934Z,94.21
2023-05-13T00:11:24.381Z,94.21
2023-05-13T00:11:56.883Z,94.32
2023-05-13T00:12:29.327Z,94.46
2023-05-13T00:13:01.761Z,94.46
2023-05-13T00:13:34.232Z,94.36
2023-05-13T00:14:06.668Z,94.26
2023-05-13T00:14:39.069Z,94.46
2023-05-13T00:15:11.508Z,94.46
2023-05-13T00:15:44.040Z,94.46
2023-05-13T00:16:16.548Z,94.46
2023-05-13T00:16:48.975Z,94.46
2023-05-13T00:17:21.372Z,94.26
2023-05-13T00:17:53.817Z,94.36
2023-05-13T00:18:26.230Z,94.36
2023-05-13T00:18:58.691Z,94.36
2023-05-13T00:19:31.092Z,94.46
2023-05-13T00:20:03.550Z,94.77
2023-05-13T00:20:35.984Z,94.87
2023-05-13T00:21:08.400Z,94.87
2023-05-13T00:21:40.818Z,94.87
2023-05-13T00:22:13.282Z,94.97
2023-05-13T00:22:45.705Z,95.18
2023-05-13T00:23:18.135Z,95.07
2023-05-13T00:23:50.557Z,95.22
2023-05-13T00:24:22.945Z,95.38
2023-05-13T00:24:55.394Z,95.22
2023-05-13T00:25:27.832Z,95.32
2023-05-13T00:26:00.254Z,95.22
2023-05-13T00:26:32.684Z,95.32
2023-05-13T00:27:05.127Z,95.32
2023-05-13T00:27:37.608Z,95.53
2023-05-13T00:28:10.020Z,95.43
2023-05-13T00:28:42.500Z,95.43
2023-05-13T00:29:14.919Z,95.43
2023-05-13T00:29:47.336Z,95.32
2023-05-13T00:30:20.106Z,95.32
2023-05-13T00:30:52.251Z,95.43
2023-05-13T00:31:24.667Z,95.32
2023-05-13T00:31:57.208Z,95.63
2023-05-13T00:32:29.609Z,95.53
2023-05-13T00:33:02.104Z,95.63
2023-05-13T00:33:34.478Z,95.73
2023-05-13T00:34:06.934Z,95.94
2023-05-13T00:34:39.456Z,95.73
2023-05-13T00:35:11.907Z,95.63
2023-05-13T00:35:44.325Z,95.63
2023-05-13T00:36:16.783Z,95.43
2023-05-13T00:36:49.222Z,95.28
2023-05-13T00:37:21.656Z,95.43
2023-05-13T00:37:54.142Z,95.28
2023-05-13T00:38:26.659Z,95.28
2023-05-13T00:38:59.170Z,95.18
2023-05-13T00:39:31.626Z,95.07
2023-05-13T00:40:04.061Z,95.18
2023-05-13T00:40:36.476Z,95.18
2023-05-13T00:41:08.915Z,95.07
2023-05-13T00:41:41.369Z,94.97
2023-05-13T00:42:13.842Z,94.97
2023-05-13T00:42:46.277Z,95.18
2023-05-13T00:43:18.718Z,95.07
2023-05-13T00:43:51.141Z,94.97
2023-05-13T00:44:23.589Z,94.97
2023-05-13T00:44:55.998Z,94.97
2023-05-13T00:45:28.415Z,95.18
2023-05-13T00:46:01.069Z,95.12
2023-05-13T00:46:33.397Z,95.18
2023-05-13T00:47:05.861Z,95.22
2023-05-13T00:47:38.309Z,95.32
2023-05-13T00:48:10.749Z,95.53
2023-05-13T00:48:43.195Z,95.43
2023-05-13T00:49:15.645Z,95.43
2023-05-13T00:49:48.077Z,95.43
2023-05-13T00:50:20.714Z,95.43
2023-05-13T00:50:53.031Z,95.73
2023-05-13T00:51:25.439Z,95.53
2023-05-13T00:51:57.946Z,95.53
2023-05-13T00:52:30.358Z,95.43
2023-05-13T00:53:02.821Z,95.32
2023-05-13T00:53:35.284Z,95.22
2023-05-13T00:54:07.757Z,95.43
2023-05-13T00:54:40.159Z,95.43
2023-05-13T00:55:12.563Z,95.53
2023-05-13T00:55:45.053Z,95.63
2023-05-13T00:56:17.458Z,95.63
2023-05-13T00:56:49.912Z,95.73
2023-05-13T00:57:22.343Z,95.84
2023-05-13T00:57:54.806Z,95.84
2023-05-13T00:58:27.282Z,95.84
2023-05-13T00:58:59.744Z,95.63
2023-05-13T00:59:32.218Z,95.73
2023-05-13T01:00:04.636Z,95.84
2023-05-13T01:00:37.082Z,95.94
2023-05-13T01:01:09.541Z,95.73
2023-05-13T01:01:41.994Z,95.84
2023-05-13T01:02:14.412Z,95.84
2023-05-13T01:02:46.866Z,95.94
2023-05-13T01:03:19.394Z,95.84
2023-05-13T01:03:51.692Z,95.84
2023-05-13T01:04:24.118Z,95.73
2023-05-13T01:04:56.546Z,95.94
2023-05-13T01:05:28.962Z,95.73
2023-05-13T01:06:01.427Z,95.73
2023-05-13T01:06:33.851Z,95.63
2023-05-13T01:07:06.338Z,95.94
2023-05-13T01:07:38.771Z,95.84
2023-05-13T01:08:11.206Z,96.04
2023-05-13T01:08:43.623Z,95.84
2023-05-13T01:09:16.103Z,96.04
2023-05-13T01:09:48.545Z,95.94
2023-05-13T01:10:21.977Z,95.94
2023-05-13T01:10:54.391Z,95.84
2023-05-13T01:11:26.806Z,96.14
2023-05-13T01:11:59.243Z,96.04
2023-05-13T01:12:31.723Z,95.84
2023-05-13T01:13:04.158Z,96.04
2023-05-13T01:13:36.594Z,96.04
2023-05-13T01:14:09.040Z,96.08
2023-05-13T01:14:41.493Z,96.19
2023-05-13T01:15:13.911Z,96.29
2023-05-13T01:15:46.340Z,96.39
2023-05-13T01:16:18.795Z,96.49
2023-05-13T01:16:51.236Z,96.70
2023-05-13T01:17:23.703Z,96.49
2023-05-13T01:17:56.131Z,96.49
2023-05-13T01:18:28.576Z,96.49
2023-05-13T01:19:01.030Z,96.39
2023-05-13T01:19:33.354Z,96.39
2023-05-13T01:20:05.804Z,96.39
2023-05-13T01:20:38.227Z,96.74
2023-05-13T01:21:10.683Z,96.74
2023-05-13T01:21:43.111Z,96.74
2023-05-13T01:22:15.533Z,96.95
2023-05-13T01:22:47.959Z,96.74
2023-05-13T01:23:20.415Z,96.74
2023-05-13T01:23:52.842Z,96.64
2023-05-13T01:24:25.360Z,96.54
2023-05-13T01:24:57.756Z,96.54
2023-05-13T01:25:30.213Z,96.74
2023-05-13T01:26:02.736Z,96.95
2023-05-13T01:26:35.172Z,97.15
2023-05-13T01:27:07.655Z,97.25
2023-05-13T01:27:40.111Z,97.15
2023-05-13T01:28:12.571Z,97.15
2023-05-13T01:28:45.024Z,97.05
2023-05-13T01:29:17.457Z,96.95
2023-05-13T01:29:49.909Z,97.15
2023-05-13T01:30:22.497Z,97.25
2023-05-13T01:30:54.792Z,97.15
2023-05-13T01:31:27.222Z,97.05
2023-05-13T01:31:59.736Z,97.05
2023-05-13T01:32:32.200Z,96.95
2023-05-13T01:33:04.712Z,97.00
2023-05-13T01:33:37.013Z,96.91
2023-05-13T01:34:09.426Z,96.80
2023-05-13T01:34:41.868Z,96.80
2023-05-13T01:35:14.333Z,96.70
2023-05-13T01:35:46.812Z,96.70
2023-05-13T01:36:19.224Z,96.59
2023-05-13T01:36:51.692Z,96.59
2023-05-13T01:37:24.113Z,96.49
2023-05-13T01:37:56.550Z,96.39
2023-05-13T01:38:28.982Z,96.29
2023-05-13T01:39:01.425Z,96.19
2023-05-13T01:39:33.856Z,96.49
2023-05-13T01:40:14.353Z,96.29
2023-05-13T01:40:39.204Z,96.08
2023-05-13T01:41:11.220Z,95.98
2023-05-13T01:41:43.682Z,95.78
2023-05-13T01:42:16.112Z,95.47
2023-05-13T01:42:48.539Z,95.47
2023-05-13T01:43:21.011Z,95.57
2023-05-13T01:43:53.450Z,95.67
2023-05-13T01:44:25.867Z,95.57
2023-05-13T01:44:58.289Z,95.98
2023-05-13T01:45:30.778Z,95.88
2023-05-13T01:46:03.186Z,95.88
2023-05-13T01:46:35.664Z,95.98
2023-05-13T01:47:08.056Z,95.98
2023-05-13T01:47:40.575Z,96.08
2023-05-13T01:48:12.915Z,96.59
2023-05-13T01:48:45.359Z,96.49
2023-05-13T01:49:17.794Z,96.29
2023-05-13T01:49:50.218Z,96.13
2023-05-13T01:50:22.797Z,95.92
2023-05-13T01:50:55.067Z,95.92
2023-05-13T01:51:27.461Z,95.82
2023-05-13T01:51:59.892Z,95.92
2023-05-13T01:52:32.379Z,96.13
2023-05-13T01:53:04.823Z,96.23
2023-05-13T01:53:37.233Z,96.23
2023-05-13T01:54:09.655Z,96.13
2023-05-13T01:54:42.083Z,96.33
2023-05-13T01:55:14.567Z,96.44
2023-05-13T01:55:46.999Z,96.64
2023-05-13T01:56:19.406Z,96.69
2023-05-13T01:56:51.833Z,96.79
2023-05-13T01:57:24.255Z,96.58
2023-05-13T01:57:56.725Z,96.58
2023-05-13T01:58:29.145Z,96.58
2023-05-13T01:59:01.571Z,96.69
2023-05-13T01:59:33.996Z,96.69
2023-05-13T02:00:06.445Z,96.89
2023-05-13T02:00:38.887Z,96.89
2023-05-13T02:01:11.396Z,96.99
2023-05-13T02:01:43.847Z,97.30
2023-05-13T02:02:16.324Z,97.20
2023-05-13T02:02:48.807Z,97.61
2023-05-13T02:03:21.308Z,97.40
2023-05-13T02:03:53.751Z,97.50
2023-05-13T02:04:26.148Z,97.81
2023-05-13T02:04:58.595Z,97.71
2023-05-13T02:05:31.024Z,97.71
2023-05-13T02:06:03.472Z,97.81
2023-05-13T02:06:35.896Z,97.81
2023-05-13T02:07:08.329Z,97.71
2023-05-13T02:07:40.754Z,97.81
2023-05-13T02:08:13.255Z,97.75
2023-05-13T02:08:45.719Z,97.75
2023-05-13T02:09:18.166Z,97.75
2023-05-13T02:09:50.609Z,97.65
2023-05-13T02:10:23.193Z,97.86
2023-05-13T02:10:55.456Z,97.86
2023-05-13T02:11:27.872Z,97.86
2023-05-13T02:12:00.296Z,97.86
2023-05-13T02:12:32.746Z,98.07
2023-05-13T02:13:05.232Z,97.96
2023-05-13T02:13:37.648Z,97.96
2023-05-13T02:14:10.094Z,97.96
2023-05-13T02:14:42.530Z,98.16
2023-05-13T02:15:14.944Z,98.16
2023-05-13T02:15:47.381Z,98.16
2023-05-13T02:16:19.866Z,98.16
2023-05-13T02:16:52.414Z,98.27
2023-05-13T02:17:24.995Z,98.16
2023-05-13T02:17:57.387Z,98.27
2023-05-13T02:18:29.866Z,98.27
2023-05-13T02:19:02.288Z,98.27
2023-05-13T02:19:34.732Z,98.37
2023-05-13T02:20:07.203Z,98.37
2023-05-13T02:20:39.641Z,98.47
2023-05-13T02:21:12.085Z,98.37
2023-05-13T02:21:44.565Z,98.37
2023-05-13T02:22:16.998Z,98.16
2023-05-13T02:22:49.410Z,98.16
2023-05-13T02:23:21.926Z,98.27
2023-05-13T02:23:54.343Z,98.37
2023-05-13T02:24:26.796Z,98.32
2023-05-13T02:24:59.222Z,98.42
2023-05-13T02:25:31.704Z,98.58
2023-05-13T02:26:04.117Z,98.58
2023-05-13T02:26:36.530Z,98.47
2023-05-13T02:27:08.967Z,98.47
2023-05-13T02:27:41.379Z,98.58
2023-05-13T02:28:13.870Z,98.68
2023-05-13T02:28:46.286Z,98.68
2023-05-13T02:29:18.701Z,98.78
2023-05-13T02:29:51.133Z,98.78
2023-05-13T02:30:23.801Z,98.68
2023-05-13T02:30:56.001Z,98.78
2023-05-13T02:31:28.461Z,98.68
2023-05-13T02:32:00.959Z,98.68
2023-05-13T02:32:33.392Z,98.58
2023-05-13T02:33:05.823Z,98.58
2023-05-13T02:33:38.160Z,98.47
2023-05-13T02:34:10.600Z,98.68
2023-05-13T02:34:43.031Z,98.78
2023-05-13T02:35:15.483Z,98.58
2023-05-13T02:35:47.959Z,98.47
2023-05-13T02:36:20.509Z,98.68
2023-05-13T02:36:52.913Z,98.58
2023-05-13T02:37:25.346Z,98.58
2023-05-13T02:37:57.786Z,98.58
2023-05-13T02:38:30.216Z,98.58
2023-05-13T02:39:02.641Z,98.58
2023-05-13T02:39:35.112Z,98.47
2023-05-13T02:40:07.529Z,98.47
2023-05-13T02:40:40.093Z,98.58
2023-05-13T02:41:12.559Z,98.58
2023-05-13T02:41:44.986Z,98.68
2023-05-13T02:42:17.444Z,98.68
2023-05-13T02:42:49.870Z,98.68
2023-05-13T02:43:22.278Z,98.68
2023-05-13T02:43:54.731Z,98.68
2023-05-13T02:44:27.145Z,98.68
2023-05-13T02:44:59.595Z,98.58
2023-05-13T02:45:32.073Z,98.47
2023-05-13T02:46:04.563Z,98.47
2023-05-13T02:46:36.957Z,98.47
2023-05-13T02:47:09.398Z,98.47
2023-05-13T02:47:41.894Z,98.37
2023-05-13T02:48:14.327Z,98.37
2023-05-13T02:48:46.801Z,98.16
2023-05-13T02:49:19.265Z,97.96
2023-05-13T02:49:51.681Z,97.91
2023-05-13T02:50:24.386Z,97.96
2023-05-13T02:50:56.528Z,97.86
2023-05-13T02:51:28.978Z,97.86
2023-05-13T02:52:01.403Z,97.96
2023-05-13T02:52:33.832Z,98.27
2023-05-13T02:53:06.304Z,98.07
2023-05-13T02:53:38.747Z,97.96
2023-05-13T02:54:11.190Z,98.16
2023-05-13T02:54:43.665Z,98.16
2023-05-13T02:55:16.172Z,97.96
2023-05-13T02:55:48.601Z,97.96
2023-05-13T02:56:21.115Z,97.96
2023-05-13T02:56:53.582Z,97.96
2023-05-13T02:57:25.975Z,97.86
2023-05-13T02:57:58.446Z,98.11
2023-05-13T02:58:30.913Z,98.00
2023-05-13T02:59:03.380Z,98.00
2023-05-13T02:59:35.887Z,98.00
2023-05-13T03:00:08.372Z,98.21
2023-05-13T03:00:40.856Z,98.21
2023-05-13T03:01:13.314Z,98.32
2023-05-13T03:01:45.845Z,98.21
2023-05-13T03:02:18.270Z,98.42
2023-05-13T03:02:50.717Z,98.52
2023-05-13T03:03:23.133Z,98.58
2023-05-13T03:03:55.477Z,98.58
2023-05-13T03:04:27.961Z,98.68
2023-05-13T03:05:00.409Z,98.58
2023-05-13T03:05:32.858Z,98.47
2023-05-13T03:06:05.288Z,98.47
2023-05-13T03:06:37.722Z,98.68
2023-05-13T03:07:10.169Z,98.47
2023-05-13T03:07:42.585Z,98.37
2023-05-13T03:08:15.058Z,98.37
2023-05-13T03:08:47.553Z,98.32
2023-05-13T03:09:19.981Z,98.42
2023-05-13T03:09:52.422Z,98.32
2023-05-13T03:10:24.877Z,98.32
2023-05-13T03:10:57.336Z,98.52
2023-05-13T03:11:29.788Z,98.52
2023-05-13T03:12:02.204Z,98.62
2023-05-13T03:12:34.692Z,98.62
2023-05-13T03:13:07.208Z,98.52
2023-05-13T03:13:39.640Z,98.62
2023-05-13T03:14:12.068Z,98.52
2023-05-13T03:14:44.516Z,98.62
2023-05-13T03:15:16.963Z,98.72
2023-05-13T03:15:49.408Z,98.67
2023-05-13T03:16:21.854Z,98.97
2023-05-13T03:16:54.242Z,99.24
2023-05-13T03:17:26.752Z,99.03
2023-05-13T03:17:59.281Z,99.08
2023-05-13T03:18:31.744Z,99.18
2023-05-13T03:19:04.173Z,99.13
2023-05-13T03:19:36.563Z,99.08
2023-05-13T03:20:09.001Z,99.08
2023-05-13T03:20:41.443Z,99.08
2023-05-13T03:21:13.867Z,99.08
2023-05-13T03:21:46.270Z,98.97
2023-05-13T03:22:18.690Z,98.87
2023-05-13T03:22:51.138Z,98.87
2023-05-13T03:23:23.610Z,98.87
2023-05-13T03:23:56.066Z,98.97
2023-05-13T03:24:28.532Z,98.87
2023-05-13T03:25:00.993Z,98.92
2023-05-13T03:25:33.398Z,99.02
2023-05-13T03:26:05.822Z,99.02
2023-05-13T03:26:38.247Z,99.02
2023-05-13T03:27:10.678Z,99.02
2023-05-13T03:27:43.129Z,99.02
2023-05-13T03:28:15.541Z,99.02
2023-05-13T03:28:47.998Z,99.02
2023-05-13T03:29:20.457Z,99.12
2023-05-13T03:29:52.878Z,99.43
2023-05-13T03:30:25.352Z,99.43
2023-05-13T03:30:57.844Z,99.43
2023-05-13T03:31:30.464Z,99.43
2023-05-13T03:32:02.753Z,99.43
2023-05-13T03:32:35.249Z,99.43
2023-05-13T03:33:07.672Z,99.54
2023-05-13T03:33:40.114Z,99.43
2023-05-13T03:34:12.581Z,99.43
2023-05-13T03:34:44.994Z,99.43
2023-05-13T03:35:17.472Z,99.43
2023-05-13T03:35:49.984Z,99.58
2023-05-13T03:36:22.311Z,99.84
2023-05-13T03:36:54.772Z,99.84
2023-05-13T03:37:27.222Z,99.84
2023-05-13T03:37:59.651Z,99.95
2023-05-13T03:38:32.077Z,99.95
2023-05-13T03:39:04.512Z,99.99
2023-05-13T03:39:36.935Z,99.99
2023-05-13T03:40:09.372Z,99.99
2023-05-13T03:40:41.797Z,99.99
2023-05-13T03:41:14.237Z,99.95
2023-05-13T03:41:46.659Z,99.99
2023-05-13T03:42:19.095Z,99.99
2023-05-13T03:42:51.541Z,99.99
2023-05-13T03:43:24.019Z,99.99
2023-05-13T03:43:56.420Z,99.99
2023-05-13T03:44:28.859Z,99.99
2023-05-13T03:45:01.396Z,99.99
2023-05-13T03:45:33.853Z,99.99
2023-05-13T03:46:06.300Z,99.99
2023-05-13T03:46:38.768Z,99.99
2023-05-13T03:47:11.157Z,99.99
2023-05-13T03:47:43.627Z,99.99
2023-05-13T03:48:16.037Z,99.99
2023-05-13T03:48:48.504Z,99.99
2023-05-13T03:49:20.992Z,99.99
2023-05-13T03:49:53.423Z,99.99
2023-05-13T03:50:25.875Z,99.99
2023-05-13T03:50:58.403Z,99.99
2023-05-13T03:51:30.871Z,99.99
2023-05-13T03:52:03.320Z,99.99
2023-05-13T03:52:35.798Z,99.99
2023-05-13T03:53:08.197Z,99.99
2023-05-13T03:53:40.648Z,99.99
2023-05-13T03:54:13.103Z,99.99
2023-05-13T03:54:45.584Z,99.99
2023-05-13T03:55:18.024Z,99.99
2023-05-13T03:55:50.467Z,99.99
2023-05-13T03:56:22.897Z,99.99
2023-05-13T03:56:55.325Z,99.99
2023-05-13T03:57:27.782Z,99.99
2023-05-13T03:58:00.211Z,99.99
2023-05-13T03:58:32.653Z,99.99
2023-05-13T03:59:05.096Z,99.99
2023-05-13T03:59:37.528Z,99.99
2023-05-13T04:00:09.988Z,99.99
2023-05-13T04:00:42.435Z,99.99
2023-05-13T04:01:14.874Z,99.99
2023-05-13T04:01:47.345Z,99.99
2023-05-13T04:02:19.833Z,99.99
2023-05-13T04:02:52.278Z,99.99
2023-05-13T04:03:24.729Z,99.99
2023-05-13T04:03:57.112Z,99.99
2023-05-13T04:04:29.598Z,99.99
2023-05-13T04:05:02.030Z,99.99
2023-05-13T04:05:34.427Z,99.99
2023-05-13T04:06:06.897Z,99.99
2023-05-13T04:06:39.324Z,99.99
2023-05-13T04:07:11.776Z,99.99
2023-05-13T04:07:44.228Z,99.99
2023-05-13T04:08:16.658Z,99.99
2023-05-13T04:08:49.099Z,99.99
2023-05-13T04:09:21.510Z,99.99
2023-05-13T04:09:53.983Z,99.99
2023-05-13T04:10:26.420Z,99.99
2023-05-13T04:10:58.838Z,99.99
2023-05-13T04:11:31.261Z,99.99
2023-05-13T04:12:03.739Z,99.99
2023-05-13T04:12:36.172Z,99.99
2023-05-13T04:13:08.595Z,99.99
2023-05-13T04:13:40.989Z,99.99
2023-05-13T04:14:20.472Z,99.99
2023-05-13T04:14:52.877Z,99.99
2023-05-13T04:15:32.859Z,99.99
2023-05-13T04:16:05.271Z,99.99
2023-05-13T04:16:44.752Z,99.99
2023-05-13T04:17:24.294Z,99.99
2023-05-13T04:17:56.662Z,99.99
2023-05-13T04:18:36.113Z,99.99
2023-05-13T04:19:15.598Z,99.99
2023-05-13T04:19:48.003Z,99.99
2023-05-13T04:20:27.498Z,99.99
2023-05-13T04:20:59.923Z,99.99
2023-05-13T04:21:39.380Z,99.99
2023-05-13T04:22:18.887Z,99.99
2023-05-13T04:22:51.279Z,99.99
2023-05-13T04:23:23.705Z,99.99
2023-05-13T04:23:56.142Z,99.99
2023-05-13T04:24:28.574Z,99.99
2023-05-13T04:25:00.994Z,99.99
2023-05-13T04:25:33.435Z,99.99
2023-05-13T04:26:05.858Z,99.99
2023-05-13T04:26:38.309Z,99.99
2023-05-13T04:27:10.760Z,99.99
2023-05-13T04:27:43.172Z,99.99
2023-05-13T04:28:15.610Z,99.99
2023-05-13T04:28:48.040Z,99.99
2023-05-13T04:29:20.477Z,99.99
2023-05-13T04:29:52.905Z,99.99
2023-05-13T04:30:25.323Z,99.99
2023-05-13T04:30:57.758Z,99.99
2023-05-13T04:31:30.207Z,99.99
2023-05-13T04:32:02.622Z,99.99
2023-05-13T04:32:35.092Z,99.99
2023-05-13T04:33:07.497Z,99.99
2023-05-13T04:33:39.925Z,99.99
2023-05-13T04:34:12.352Z,99.99
2023-05-13T04:34:44.803Z,99.99
2023-05-13T04:35:17.227Z,99.99
2023-05-13T04:37:37.349Z,99.99
2023-05-13T04:38:09.752Z,99.99
2023-05-13T04:38:42.193Z,99.99
2023-05-13T04:39:14.679Z,99.95
2023-05-13T04:39:47.825Z,99.95
2023-05-13T04:40:20.508Z,99.95
2023-05-13T04:40:52.709Z,99.95
2023-05-13T04:41:25.183Z,99.99
2023-05-13T04:41:57.668Z,99.95
2023-05-13T04:42:30.144Z,99.85
2023-05-13T04:43:02.600Z,99.75
2023-05-13T04:43:35.036Z,99.85
2023-05-13T04:44:07.488Z,99.95
2023-05-13T04:44:39.941Z,99.95
2023-05-13T04:45:12.410Z,99.91
2023-05-13T04:45:44.886Z,99.91
2023-05-13T04:46:17.353Z,99.80
2023-05-13T04:46:49.747Z,99.70
2023-05-13T04:47:22.214Z,99.60
2023-05-13T04:47:56.235Z,99.50
2023-05-13T04:48:27.077Z,99.40
2023-05-13T04:48:59.536Z,99.15
2023-05-13T04:49:32.061Z,99.04
2023-05-13T04:50:04.504Z,98.94
2023-05-13T04:50:36.917Z,98.83
2023-05-13T04:51:09.422Z,98.94
2023-05-13T04:51:41.891Z,98.74
2023-05-13T04:52:14.293Z,98.63
2023-05-13T04:52:46.693Z,98.63
2023-05-13T04:53:19.139Z,98.53
2023-05-13T04:53:51.579Z,98.43
2023-05-13T04:54:24.040Z,98.43
2023-05-13T04:54:56.516Z,98.33
2023-05-13T04:55:28.952Z,98.22
2023-05-13T04:56:01.358Z,98.07
2023-05-13T04:56:33.811Z,98.07
2023-05-13T04:57:06.239Z,97.97
2023-05-13T04:57:38.680Z,97.87
2023-05-13T04:58:11.164Z,97.87
2023-05-13T04:58:43.597Z,97.77
2023-05-13T04:59:16.033Z,97.56
2023-05-13T04:59:48.514Z,97.46
2023-05-13T05:00:22.550Z,97.46
2023-05-13T05:00:54.807Z,97.56
2023-05-13T05:01:27.341Z,97.25
2023-05-13T05:01:59.981Z,97.21
2023-05-13T05:02:32.251Z,97.11
2023-05-13T05:03:04.705Z,97.11
2023-05-13T05:03:37.211Z,97.00
2023-05-13T05:04:09.632Z,96.91
2023-05-13T05:04:42.063Z,97.00
2023-05-13T05:05:15.660Z,96.91
2023-05-13T05:05:47.058Z,96.91
2023-05-13T05:06:19.522Z,97.00
2023-05-13T05:06:52.011Z,96.91
2023-05-13T05:07:25.034Z,96.70
2023-05-13T05:07:57.474Z,96.70
2023-05-13T05:08:29.971Z,96.91
2023-05-13T05:09:02.430Z,96.86
2023-05-13T05:09:34.872Z,96.75
2023-05-13T05:10:08.347Z,96.75
2023-05-13T05:10:40.786Z,96.66
2023-05-13T05:11:13.817Z,96.66
2023-05-13T05:11:46.294Z,96.66
2023-05-13T05:12:20.322Z,96.86
2023-05-13T05:12:52.772Z,96.96
2023-05-13T05:13:25.272Z,96.75
2023-05-13T05:13:57.749Z,96.55
2023-05-13T05:14:30.171Z,96.25
2023-05-13T05:15:02.611Z,96.55
2023-05-13T05:15:35.045Z,96.51
2023-05-13T05:16:07.482Z,96.10
2023-05-13T05:16:39.908Z,96.10
2023-05-13T05:17:13.358Z,95.89
2023-05-13T05:17:45.883Z,95.79
2023-05-13T05:18:18.257Z,95.59
2023-05-13T05:18:50.734Z,95.59
2023-05-13T05:19:23.377Z,95.13
2023-05-13T05:19:55.835Z,95.13
2023-05-13T05:20:28.258Z,95.03
2023-05-13T05:21:02.400Z,95.13
2023-05-13T05:21:33.144Z,95.23
2023-05-13T05:22:05.569Z,95.23
2023-05-13T05:22:38.016Z,95.44
2023-05-13T05:23:10.441Z,95.34
2023-05-13T05:23:42.894Z,95.23
2023-05-13T05:24:16.083Z,95.09
2023-05-13T05:24:48.828Z,95.09
2023-05-13T05:25:21.251Z,95.09
2023-05-13T05:26:04.132Z,94.98
2023-05-13T05:26:26.258Z,94.89
2023-05-13T05:26:59.315Z,94.68
2023-05-13T05:27:31.755Z,94.68
2023-05-13T05:28:04.239Z,94.68
2023-05-13T05:28:36.675Z,94.37
2023-05-13T05:29:09.332Z,94.07
2023-05-13T05:29:42.530Z,93.92
2023-05-13T05:30:14.981Z,93.62
2023-05-13T05:30:47.442Z,93.51
2023-05-13T05:31:19.952Z,93.31
2023-05-13T05:31:52.353Z,93.31
2023-05-13T05:32:24.776Z,93.51
2023-05-13T05:32:57.215Z,93.16
2023-05-13T05:33:29.640Z,92.96
2023-05-13T05:34:02.118Z,92.65
2023-05-13T05:34:34.541Z,92.55
2023-05-13T05:35:06.973Z,92.35
2023-05-13T05:35:39.437Z,92.41
2023-05-13T05:36:11.895Z,92.50
2023-05-13T05:36:44.321Z,92.50
2023-05-13T05:37:17.333Z,92.10
2023-05-13T05:37:49.784Z,91.89
2023-05-13T05:38:23.338Z,91.55
2023-05-13T05:38:56.540Z,91.55
2023-05-13T05:39:28.943Z,91.03
2023-05-13T05:40:02.086Z,91.14
2023-05-13T05:40:34.526Z,90.83
2023-05-13T05:41:06.982Z,90.59
2023-05-13T05:41:40.327Z,90.28
2023-05-13T05:42:12.759Z,90.28
2023-05-13T05:42:45.252Z,89.94
2023-05-13T05:43:17.701Z,89.63
2023-05-13T05:43:50.108Z,89.63
2023-05-13T05:44:22.630Z,89.01
2023-05-13T05:44:55.104Z,88.71
2023-05-13T05:45:27.559Z,88.46
2023-05-13T05:46:00.032Z,88.67
2023-05-13T05:46:33.342Z,88.57
2023-05-13T05:47:05.738Z,88.32
2023-05-13T05:47:39.079Z,87.71
2023-05-13T05:48:11.549Z,87.30
2023-05-13T05:48:43.961Z,87.00
2023-05-13T05:49:17.061Z,87.16
2023-05-13T05:49:49.519Z,87.26
2023-05-13T05:50:22.211Z,87.43
2023-05-13T05:50:54.384Z,87.12
2023-05-13T05:51:26.837Z,86.57
2023-05-13T05:51:59.300Z,86.27
2023-05-13T05:52:31.826Z,85.31
2023-05-13T05:53:04.252Z,84.97
2023-05-13T05:53:36.675Z,84.72
2023-05-13T05:54:09.117Z,83.77
2023-05-13T05:54:41.620Z,82.42
2023-05-13T05:55:14.037Z,80.86
2023-05-13T05:55:46.494Z,80.39
2023-05-13T05:56:18.983Z,80.86
2023-05-13T05:56:51.424Z,80.82
2023-05-13T05:57:23.891Z,80.98
2023-05-13T05:57:56.346Z,80.80
2023-05-13T05:58:28.798Z,80.16
2023-05-13T05:59:01.235Z,78.77
2023-05-13T05:59:33.699Z,78.19
2023-05-13T06:00:06.196Z,76.58
2023-05-13T06:00:39.329Z,76.48
2023-05-13T06:01:11.753Z,75.84
2023-05-13T06:01:44.236Z,75.80
2023-05-13T06:02:16.730Z,74.08
2023-05-13T06:02:49.284Z,72.78
2023-05-13T06:03:21.766Z,73.25
2023-05-13T06:03:54.980Z,72.24
2023-05-13T06:04:26.498Z,70.93
2023-05-13T06:04:58.951Z,71.03
2023-05-13T06:05:31.391Z,70.70
2023-05-13T06:06:03.833Z,70.96
2023-05-13T06:06:36.309Z,70.46
2023-05-13T06:07:08.792Z,71.06
2023-05-13T06:07:41.192Z,71.13
2023-05-13T06:08:13.650Z,72.10
2023-05-13T06:08:46.109Z,71.43
2023-05-13T06:09:18.582Z,69.12
2023-05-13T06:09:51.015Z,67.91
2023-05-13T06:10:23.758Z,67.55
2023-05-13T06:10:55.944Z,68.95
2023-05-13T06:11:28.385Z,69.76
2023-05-13T06:12:00.836Z,68.15
2023-05-13T06:12:33.274Z,68.15
2023-05-13T06:13:05.711Z,69.02
2023-05-13T06:13:38.245Z,68.38
2023-05-13T06:14:10.663Z,68.82
2023-05-13T06:14:43.139Z,68.19
2023-05-13T06:15:15.576Z,65.62
2023-05-13T06:15:48.057Z,63.18
2023-05-13T06:16:20.534Z,62.92
2023-05-13T06:16:53.717Z,62.29
2023-05-13T06:17:25.369Z,62.19
2023-05-13T06:17:57.887Z,62.49
2023-05-13T06:18:30.380Z,61.89
2023-05-13T06:19:02.774Z,61.40
2023-05-13T06:19:35.144Z,60.06
2023-05-13T06:20:07.641Z,60.63
2023-05-13T06:20:40.055Z,60.08
2023-05-13T06:21:12.508Z,59.55
2023-05-13T06:21:45.021Z,56.73
2023-05-13T06:22:17.514Z,56.60
2023-05-13T06:22:50.040Z,57.37
2023-05-13T06:23:22.497Z,56.85
2023-05-13T06:23:55.147Z,54.75
2023-05-13T06:24:27.601Z,55.93
2023-05-13T06:25:00.055Z,55.46
2023-05-13T06:25:32.506Z,53.59
2023-05-13T06:26:04.973Z,55.71
2023-05-13T06:26:37.424Z,55.54
2023-05-13T06:27:09.855Z,55.04
2023-05-13T06:27:42.308Z,56.90
2023-05-13T06:28:14.729Z,54.98
2023-05-13T06:28:47.249Z,55.16
2023-05-13T06:29:19.674Z,53.74
2023-05-13T06:29:52.131Z,54.60
2023-05-13T06:30:24.727Z,52.99
2023-05-13T06:30:57.105Z,52.86
2023-05-13T06:31:29.515Z,52.84
2023-05-13T06:32:01.974Z,53.91
2023-05-13T06:32:34.432Z,51.40
2023-05-13T06:33:06.863Z,52.66
2023-05-13T06:33:39.269Z,52.73
2023-05-13T06:34:11.735Z,51.92
2023-05-13T06:34:44.204Z,51.10
2023-05-13T06:35:16.661Z,50.18
2023-05-13T06:35:49.123Z,47.69
2023-05-13T06:36:21.562Z,46.97
2023-05-13T06:36:54.021Z,47.96
2023-05-13T06:37:26.510Z,49.02
2023-05-13T06:37:59.029Z,49.01
2023-05-13T06:38:31.484Z,47.03
2023-05-13T06:39:04.020Z,46.11
2023-05-13T06:39:36.505Z,47.99
2023-05-13T06:40:08.983Z,46.19
2023-05-13T06:40:41.493Z,45.28
2023-05-13T06:41:13.964Z,45.78
2023-05-13T06:41:46.440Z,43.59
2023-05-13T06:42:18.901Z,44.96
2023-05-13T06:42:51.368Z,46.12
2023-05-13T06:43:23.799Z,44.35
2023-05-13T06:43:56.254Z,43.24
2023-05-13T06:44:28.707Z,44.82
2023-05-13T06:45:01.204Z,44.21
2023-05-13T06:45:33.684Z,45.19
2023-05-13T06:46:06.144Z,42.61
2023-05-13T06:46:38.606Z,42.61
2023-05-13T06:47:11.083Z,44.66
2023-05-13T06:47:43.488Z,41.71
2023-05-13T06:48:15.910Z,43.46
2023-05-13T06:48:48.374Z,43.83
2023-05-13T06:49:20.829Z,43.71
2023-05-13T06:49:53.278Z,41.16
2023-05-13T06:50:25.722Z,40.94
2023-05-13T06:50:58.155Z,42.29
2023-05-13T06:51:30.613Z,41.29
2023-05-13T06:52:03.132Z,41.86
2023-05-13T06:52:35.594Z,41.55
2023-05-13T06:53:08.054Z,39.86
2023-05-13T06:53:40.569Z,38.47
2023-05-13T06:54:13.005Z,39.04
2023-05-13T06:54:45.532Z,36.79
2023-05-13T06:55:17.997Z,37.67
2023-05-13T06:55:50.422Z,35.21
2023-05-13T06:56:22.865Z,36.57
2023-05-13T06:56:55.330Z,35.50
2023-05-13T06:57:41.376Z,36.08
2023-05-13T06:58:00.208Z,35.11
2023-05-13T06:58:32.645Z,37.83
2023-05-13T06:59:05.119Z,37.41
2023-05-13T06:59:37.538Z,38.09
2023-05-13T07:00:09.974Z,37.09
2023-05-13T07:00:42.430Z,34.92